Aérodrome :
LOGIN :

S'inscrire | Disclaimer

   EN    FR    IT 

 










Légende :    VFR   VFR Marginal   IFR   IFR Intensif   IFR Très Intensif
Visi : 
Plafond : 
>= 8 km
>= 3000ft
5 à 8 km
1000 à 3000 ft
1500m à 5 km
500 à 1000 ft
800 à 1500m
200 à 500 ft
< 800m
< 200 ft
Symboles :   Orages  Brouillard  Fortes neiges  Fortes précipitations  Vent > 20 kt
SIGMETs :   Divers  Orages  Givrage  Turbulence  Onde Orograph.  Cendres Volcan.






- Altitude de l'aérodrome : 220 ft
- Code IATA : CWL


EGFF - Cardiff Rhoose

DERNIER METAR :
  • 261620Z AUTO 27015KT 9999 BKN025 BKN031 07/02 Q1009

METARs EXPIRÉS :
  • 261550Z AUTO 27013KT 9999 SCT026 SCT038 07/02 Q1009
  • 261520Z AUTO 28016KT 9999 NCD 07/01 Q1009
  • 261450Z AUTO 28014KT 9999 FEW026 07/01 Q1009
  • 261420Z AUTO 28016KT 9999 FEW030 07/02 Q1009
  • 261350Z AUTO 29018KT 9999 SCT030 SCT040 07/02 Q1009
  • 261320Z AUTO 29018KT 9999 SCT035 BKN043 08/01 Q1009

TAF TAF EGFF
Valide du 26 à 12h jusqu'au 27 à 12h UTC


261105Z 2612/2712 29016KT 9999 SCT030
TEMPO 2612/2614 29020G30KT
PROB30
TEMPO 2612/2614 5000 SHRAGS
BECMG 2618/2621 23010KT
BECMG 2700/2703 12010KT 6000 RA FEW003 BKN008
TEMPO 2700/2709 2000 RADZ BR BKN003
BECMG 2703/2706 04012KT
BECMG 2709/2712 34016G26KT 9999 NSW SCT030
ATIS : +44 1446 729 319



MET'MAP, la Météo Aéronautique d'un coup d'oeil ! - Copyright ORBIFLY Décembre 2007 - Disclaimer

ORBIFLY MET'MAP TEAM :

Programmation & Développement : Alexandra Zaïnal
Sur une idée originale de : Baudouin d'Aumeries
Assistance à la programmation : Marc-Olivier Méhu
Soutien technique & logistique : Manuel Goepfert

Contact : metmap@orbifly.com




SOURCES & CREDITS :

   NOAA